createdAt,value
2017-01-30T00:00:15.252Z,20.64
2017-01-30T00:00:55.757Z,20.63
2017-01-30T00:01:36.251Z,20.64
2017-01-30T00:02:16.754Z,20.64
2017-01-30T00:02:57.258Z,20.64
2017-01-30T00:03:37.757Z,20.53
2017-01-30T00:04:18.245Z,20.63
2017-01-30T00:04:58.732Z,20.67
2017-01-30T00:05:39.225Z,20.71
2017-01-30T00:06:19.721Z,20.64
2017-01-30T00:07:00.204Z,20.63
2017-01-30T00:07:40.692Z,20.63
2017-01-30T00:08:21.198Z,20.66
2017-01-30T00:09:01.684Z,20.61
2017-01-30T00:09:42.172Z,20.61
2017-01-30T00:10:22.669Z,20.6
2017-01-30T00:11:03.167Z,20.56
2017-01-30T00:11:43.640Z,20.51
2017-01-30T00:12:24.126Z,20.54
2017-01-30T00:13:04.614Z,20.63
2017-01-30T00:13:45.282Z,20.61
2017-01-30T00:14:25.769Z,20.66
2017-01-30T00:15:06.261Z,20.57
2017-01-30T00:15:46.746Z,20.63
2017-01-30T00:16:27.242Z,20.64
2017-01-30T00:17:07.739Z,20.6
2017-01-30T00:17:48.227Z,20.57
2017-01-30T00:18:28.717Z,20.53
2017-01-30T00:19:09.197Z,20.64
2017-01-30T00:19:49.694Z,20.63
2017-01-30T00:20:30.188Z,20.64
2017-01-30T00:21:10.683Z,20.56
2017-01-30T00:21:51.186Z,20.57
2017-01-30T00:22:31.688Z,20.58
2017-01-30T00:23:12.186Z,20.61
2017-01-30T00:23:52.677Z,20.63
2017-01-30T00:24:33.182Z,20.56
2017-01-30T00:25:13.677Z,20.56
2017-01-30T00:25:54.176Z,20.53
2017-01-30T00:26:34.671Z,20.51
2017-01-30T00:27:15.179Z,20.57
2017-01-30T00:27:55.664Z,20.53
2017-01-30T00:28:36.151Z,20.6
2017-01-30T00:29:16.640Z,20.56
2017-01-30T00:29:57.129Z,20.53
2017-01-30T00:30:37.627Z,20.63
2017-01-30T00:31:18.119Z,20.54
2017-01-30T00:31:58.624Z,20.51
2017-01-30T00:32:39.114Z,20.54
2017-01-30T00:33:19.599Z,20.56
2017-01-30T00:34:00.096Z,20.56
2017-01-30T00:34:40.588Z,20.63
2017-01-30T00:35:21.073Z,20.6
2017-01-30T00:36:01.567Z,20.58
2017-01-30T00:36:42.064Z,20.61
2017-01-30T00:37:22.562Z,20.6
2017-01-30T00:38:03.064Z,20.51
2017-01-30T00:38:43.552Z,20.61
2017-01-30T00:39:24.041Z,20.66
2017-01-30T00:40:04.524Z,20.61
2017-01-30T00:40:45.019Z,20.63
2017-01-30T00:41:25.515Z,20.58
2017-01-30T00:42:05.998Z,20.56
2017-01-30T00:42:46.487Z,20.6
2017-01-30T00:43:26.977Z,20.58
2017-01-30T00:44:07.721Z,20.61
2017-01-30T00:44:48.300Z,20.58
2017-01-30T00:45:28.790Z,20.61
2017-01-30T00:46:09.268Z,20.57
2017-01-30T00:46:49.765Z,20.53
2017-01-30T00:47:30.256Z,20.58
2017-01-30T00:48:10.761Z,20.49
2017-01-30T00:48:51.260Z,20.61
2017-01-30T00:49:31.755Z,20.57
2017-01-30T00:50:12.263Z,20.49
2017-01-30T00:50:52.762Z,20.51
2017-01-30T00:51:33.256Z,20.53
2017-01-30T00:52:13.759Z,20.51
2017-01-30T00:52:54.253Z,20.53
2017-01-30T00:53:34.759Z,20.54
2017-01-30T00:54:15.249Z,20.48
2017-01-30T00:54:55.754Z,20.44
2017-01-30T00:55:36.256Z,20.53
2017-01-30T00:56:16.748Z,20.61
2017-01-30T00:56:57.256Z,20.56
2017-01-30T00:57:37.752Z,20.46
2017-01-30T00:58:18.249Z,20.53
2017-01-30T00:58:58.750Z,20.53
2017-01-30T00:59:39.253Z,20.49
2017-01-30T01:00:19.741Z,20.44
2017-01-30T01:01:00.241Z,20.53
2017-01-30T01:01:40.741Z,20.53
2017-01-30T01:02:21.252Z,20.44
2017-01-30T01:03:01.748Z,20.46
2017-01-30T01:03:42.250Z,20.48
2017-01-30T01:04:22.737Z,20.51
2017-01-30T01:05:03.224Z,20.44
2017-01-30T01:05:43.732Z,20.46
2017-01-30T01:06:24.219Z,20.44
2017-01-30T01:07:04.716Z,20.42
2017-01-30T01:07:45.214Z,20.4
2017-01-30T01:08:25.694Z,20.49
2017-01-30T01:09:06.188Z,20.41
2017-01-30T01:09:46.687Z,20.49
2017-01-30T01:10:27.179Z,20.4
2017-01-30T01:11:07.681Z,20.51
2017-01-30T01:11:48.178Z,20.51
2017-01-30T01:12:28.664Z,20.48
2017-01-30T01:13:09.165Z,20.53
2017-01-30T01:13:49.659Z,20.53
2017-01-30T01:14:30.412Z,20.56
2017-01-30T01:15:10.896Z,20.57
2017-01-30T01:15:51.393Z,20.53
2017-01-30T01:16:31.883Z,20.56
2017-01-30T01:17:12.376Z,20.53
2017-01-30T01:17:52.883Z,20.54
2017-01-30T01:18:33.386Z,20.56
2017-01-30T01:19:13.888Z,20.49
2017-01-30T01:19:54.374Z,20.49
2017-01-30T01:20:34.864Z,20.56
2017-01-30T01:21:15.346Z,20.57
2017-01-30T01:21:55.838Z,20.51
2017-01-30T01:22:36.333Z,20.51
2017-01-30T01:23:16.817Z,20.49
2017-01-30T01:23:57.305Z,20.54
2017-01-30T01:24:37.788Z,20.49
2017-01-30T01:25:18.284Z,20.56
2017-01-30T01:25:58.776Z,20.54
2017-01-30T01:26:39.274Z,20.48
2017-01-30T01:27:19.774Z,20.56
2017-01-30T01:28:00.265Z,20.54
2017-01-30T01:28:40.752Z,20.56
2017-01-30T01:29:21.247Z,20.49
2017-01-30T01:30:01.739Z,20.46
2017-01-30T01:30:42.232Z,20.54
2017-01-30T01:31:22.712Z,20.44
2017-01-30T01:32:03.196Z,20.44
2017-01-30T01:32:43.685Z,20.49
2017-01-30T01:33:24.175Z,20.56
2017-01-30T01:34:04.670Z,20.53
2017-01-30T01:34:45.164Z,20.53
2017-01-30T01:35:25.673Z,20.53
2017-01-30T01:36:06.176Z,20.48
2017-01-30T01:36:46.663Z,20.51
2017-01-30T01:37:27.156Z,20.48
2017-01-30T01:38:07.660Z,20.57
2017-01-30T01:38:48.157Z,20.49
2017-01-30T01:39:28.672Z,20.49
2017-01-30T01:40:09.153Z,20.41
2017-01-30T01:40:49.653Z,20.57
2017-01-30T01:41:30.146Z,20.53
2017-01-30T01:42:10.636Z,20.49
2017-01-30T01:42:51.121Z,20.44
2017-01-30T01:43:31.594Z,20.46
2017-01-30T01:44:12.094Z,20.42
2017-01-30T01:44:52.597Z,20.51
2017-01-30T01:45:33.098Z,20.4
2017-01-30T01:46:13.633Z,20.53
2017-01-30T01:46:54.076Z,20.41
2017-01-30T01:47:34.565Z,20.46
2017-01-30T01:48:15.056Z,20.54
2017-01-30T01:48:55.552Z,20.57
2017-01-30T01:49:36.037Z,20.54
2017-01-30T01:50:16.526Z,20.49
2017-01-30T01:50:57.023Z,20.41
2017-01-30T01:51:37.524Z,20.49
2017-01-30T01:52:18.001Z,20.57
2017-01-30T01:52:58.491Z,20.48
2017-01-30T01:53:38.995Z,20.53
2017-01-30T01:54:19.492Z,20.56
2017-01-30T01:54:59.993Z,20.54
2017-01-30T01:55:40.490Z,20.49
2017-01-30T01:56:20.996Z,20.53
2017-01-30T01:57:01.478Z,20.53
2017-01-30T01:57:41.967Z,20.44
2017-01-30T01:58:22.447Z,20.53
2017-01-30T01:59:02.945Z,20.51
2017-01-30T01:59:43.446Z,20.56
2017-01-30T02:00:23.932Z,20.54
2017-01-30T02:01:04.448Z,20.44
2017-01-30T02:01:44.928Z,20.51
2017-01-30T02:02:25.415Z,20.54
2017-01-30T02:03:05.905Z,20.46
2017-01-30T02:03:46.400Z,20.53
2017-01-30T02:04:26.893Z,20.46
2017-01-30T02:05:07.379Z,20.49
2017-01-30T02:05:47.893Z,20.48
2017-01-30T02:06:28.400Z,20.54
2017-01-30T02:07:08.888Z,20.57
2017-01-30T02:07:49.382Z,20.53
2017-01-30T02:08:29.878Z,20.58
2017-01-30T02:09:10.364Z,20.4
2017-01-30T02:09:50.857Z,20.44
2017-01-30T02:10:31.604Z,20.41
2017-01-30T02:12:19.091Z,20.54
2017-01-30T02:12:59.571Z,20.53
2017-01-30T02:13:40.061Z,20.53
2017-01-30T02:14:20.550Z,20.53
2017-01-30T02:15:01.050Z,20.51
2017-01-30T02:15:41.540Z,20.51
2017-01-30T02:16:22.048Z,20.54
2017-01-30T02:17:02.532Z,20.42
2017-01-30T02:17:43.021Z,20.54
2017-01-30T02:18:23.512Z,20.4
2017-01-30T02:19:03.999Z,20.44
2017-01-30T02:19:44.495Z,20.42
2017-01-30T02:20:24.981Z,20.46
2017-01-30T02:21:05.472Z,20.51
2017-01-30T02:21:45.951Z,20.42
2017-01-30T02:22:26.441Z,20.44
2017-01-30T02:23:06.932Z,20.44
2017-01-30T02:23:47.427Z,20.42
2017-01-30T02:24:27.919Z,20.44
2017-01-30T02:25:08.397Z,20.48
2017-01-30T02:25:48.888Z,20.37
2017-01-30T02:26:29.384Z,20.53
2017-01-30T02:27:09.883Z,20.54
2017-01-30T02:27:50.382Z,20.53
2017-01-30T02:28:30.876Z,20.46
2017-01-30T02:29:11.358Z,20.37
2017-01-30T02:29:51.855Z,20.42
2017-01-30T02:30:32.348Z,20.37
2017-01-30T02:31:12.832Z,20.38
2017-01-30T02:31:53.338Z,20.4
2017-01-30T02:32:33.828Z,20.46
2017-01-30T02:33:14.328Z,20.34
2017-01-30T02:33:54.826Z,20.44
2017-01-30T02:34:35.327Z,20.44
2017-01-30T02:35:15.825Z,20.42
2017-01-30T02:35:56.311Z,20.38
2017-01-30T02:36:36.810Z,20.35
2017-01-30T02:37:17.295Z,20.42
2017-01-30T02:37:57.792Z,20.51
2017-01-30T02:38:38.274Z,20.49
2017-01-30T02:39:18.769Z,20.48
2017-01-30T02:39:59.369Z,20.44
2017-01-30T02:40:39.871Z,20.54
2017-01-30T02:41:20.374Z,20.51
2017-01-30T02:42:00.871Z,20.44
2017-01-30T02:42:41.369Z,20.48
2017-01-30T02:43:21.861Z,20.53
2017-01-30T02:44:02.371Z,20.48
2017-01-30T02:44:42.862Z,20.53
2017-01-30T02:45:23.364Z,20.4
2017-01-30T02:46:04.117Z,20.51
2017-01-30T02:46:44.621Z,20.46
2017-01-30T02:47:25.118Z,20.41
2017-01-30T02:48:05.605Z,20.4
2017-01-30T02:48:46.096Z,20.42
2017-01-30T02:49:26.581Z,20.44
2017-01-30T02:50:07.092Z,20.48
2017-01-30T02:50:47.584Z,20.44
2017-01-30T02:51:28.088Z,20.37
2017-01-30T02:52:08.571Z,20.38
2017-01-30T02:52:49.063Z,20.46
2017-01-30T02:53:29.566Z,20.44
2017-01-30T02:54:10.054Z,20.49
2017-01-30T02:54:50.555Z,20.34
2017-01-30T02:55:31.061Z,20.46
2017-01-30T02:56:11.562Z,20.34
2017-01-30T02:56:52.037Z,20.37
2017-01-30T02:57:32.535Z,20.41
2017-01-30T02:58:13.017Z,20.37
2017-01-30T02:58:53.510Z,20.51
2017-01-30T02:59:34.008Z,20.37
2017-01-30T03:00:14.494Z,20.4
2017-01-30T03:00:55.008Z,20.41
2017-01-30T03:01:35.498Z,20.4
2017-01-30T03:02:16.005Z,20.42
2017-01-30T03:02:56.490Z,20.34
2017-01-30T03:03:36.981Z,20.38
2017-01-30T03:04:17.500Z,20.38
2017-01-30T03:04:57.977Z,20.41
2017-01-30T03:05:38.473Z,20.41
2017-01-30T03:06:18.968Z,20.48
2017-01-30T03:06:59.453Z,20.37
2017-01-30T03:07:39.948Z,20.38
2017-01-30T03:08:20.524Z,20.3
2017-01-30T03:09:01.004Z,20.37
2017-01-30T03:09:41.492Z,20.42
2017-01-30T03:10:22.000Z,20.48
2017-01-30T03:11:02.489Z,20.41
2017-01-30T03:11:42.992Z,20.37
2017-01-30T03:12:23.497Z,20.42
2017-01-30T03:13:03.992Z,20.38
2017-01-30T03:13:44.478Z,20.32
2017-01-30T03:14:24.967Z,20.37
2017-01-30T03:15:05.456Z,20.35
2017-01-30T03:15:45.969Z,20.3
2017-01-30T03:16:26.648Z,20.34
2017-01-30T03:17:07.127Z,20.4
2017-01-30T03:17:47.617Z,20.34
2017-01-30T03:18:28.103Z,20.37
2017-01-30T03:19:08.595Z,20.38
2017-01-30T03:19:49.084Z,20.41
2017-01-30T03:20:29.579Z,20.38
2017-01-30T03:21:10.068Z,20.32
2017-01-30T03:21:50.571Z,20.42
2017-01-30T03:22:31.049Z,20.38
2017-01-30T03:23:11.535Z,20.38
2017-01-30T03:23:52.022Z,20.37
2017-01-30T03:24:32.525Z,20.38
2017-01-30T03:25:13.010Z,20.37
2017-01-30T03:25:53.503Z,20.37
2017-01-30T03:26:33.994Z,20.34
2017-01-30T03:27:14.485Z,20.37
2017-01-30T03:27:54.979Z,20.37
2017-01-30T03:28:35.469Z,20.41
2017-01-30T03:29:15.958Z,20.42
2017-01-30T03:29:56.450Z,20.37
2017-01-30T03:30:36.951Z,20.38
2017-01-30T03:31:17.440Z,20.34
2017-01-30T03:31:57.915Z,20.42
2017-01-30T03:32:38.405Z,20.4
2017-01-30T03:33:18.893Z,20.37
2017-01-30T03:33:59.375Z,20.38
2017-01-30T03:34:39.863Z,20.57
2017-01-30T03:35:20.361Z,20.46
2017-01-30T03:36:00.848Z,20.37
2017-01-30T03:36:41.342Z,20.4
2017-01-30T03:37:21.842Z,20.4
2017-01-30T03:38:02.329Z,20.4
2017-01-30T03:38:42.837Z,20.4
2017-01-30T03:39:23.319Z,20.35
2017-01-30T03:40:03.800Z,20.38
2017-01-30T03:40:44.292Z,20.35
2017-01-30T03:41:24.785Z,20.34
2017-01-30T03:42:05.302Z,20.38
2017-01-30T03:42:45.805Z,20.37
2017-01-30T03:43:26.310Z,20.42
2017-01-30T03:44:06.812Z,20.35
2017-01-30T03:44:47.309Z,20.22
2017-01-30T03:45:27.799Z,20.38
2017-01-30T03:46:08.284Z,20.4
2017-01-30T03:46:48.767Z,20.38
2017-01-30T03:47:29.257Z,20.44
2017-01-30T03:48:09.752Z,20.3
2017-01-30T03:48:50.248Z,20.3
2017-01-30T03:49:30.771Z,20.4
2017-01-30T03:50:11.256Z,20.4
2017-01-30T03:50:51.755Z,20.37
2017-01-30T03:51:32.246Z,20.4
2017-01-30T03:52:12.726Z,20.42
2017-01-30T03:52:53.213Z,20.42
2017-01-30T03:53:33.706Z,20.38
2017-01-30T03:54:14.195Z,20.35
2017-01-30T03:54:54.687Z,20.4
2017-01-30T03:55:35.175Z,20.38
2017-01-30T03:56:15.667Z,20.41
2017-01-30T03:56:56.167Z,20.37
2017-01-30T03:57:36.648Z,20.41
2017-01-30T03:58:17.140Z,20.4
2017-01-30T03:58:57.644Z,20.37
2017-01-30T03:59:38.131Z,20.35
2017-01-30T04:00:18.616Z,20.41
2017-01-30T04:00:59.100Z,20.34
2017-01-30T04:01:39.608Z,20.34
2017-01-30T04:02:20.088Z,20.35
2017-01-30T04:03:00.582Z,20.32
2017-01-30T04:03:41.072Z,20.34
2017-01-30T04:04:21.561Z,20.34
2017-01-30T04:05:02.058Z,20.3
2017-01-30T04:05:42.538Z,20.37
2017-01-30T04:06:23.037Z,20.38
2017-01-30T04:07:03.540Z,20.26
2017-01-30T04:07:44.035Z,20.23
2017-01-30T04:08:24.532Z,20.26
2017-01-30T04:09:05.026Z,20.25
2017-01-30T04:09:45.509Z,20.35
2017-01-30T04:10:26.003Z,20.32
2017-01-30T04:11:06.503Z,20.38
2017-01-30T04:11:46.982Z,20.34
2017-01-30T04:12:27.477Z,20.38
2017-01-30T04:13:07.972Z,20.37
2017-01-30T04:13:48.461Z,20.37
2017-01-30T04:14:28.952Z,20.3
2017-01-30T04:15:09.439Z,20.34
2017-01-30T04:15:49.943Z,20.19
2017-01-30T04:16:30.422Z,20.23
2017-01-30T04:17:10.912Z,20.26
2017-01-30T04:17:51.418Z,20.29
2017-01-30T04:18:31.918Z,20.34
2017-01-30T04:19:12.420Z,20.22
2017-01-30T04:19:52.907Z,20.22
2017-01-30T04:20:33.415Z,20.25
2017-01-30T04:21:13.919Z,20.23
2017-01-30T04:21:54.414Z,20.25
2017-01-30T04:22:34.909Z,20.27
2017-01-30T04:23:15.412Z,20.26
2017-01-30T04:23:55.907Z,20.22
2017-01-30T04:24:36.412Z,20.23
2017-01-30T04:25:16.910Z,20.26
2017-01-30T04:25:57.415Z,20.25
2017-01-30T04:26:37.901Z,20.2
2017-01-30T04:27:18.388Z,20.22
2017-01-30T04:27:58.869Z,20.29
2017-01-30T04:28:39.359Z,20.25
2017-01-30T04:29:19.855Z,20.29
2017-01-30T04:30:00.361Z,20.23
2017-01-30T04:30:40.853Z,20.25
2017-01-30T04:31:21.346Z,20.3
2017-01-30T04:32:01.849Z,20.32
2017-01-30T04:32:42.340Z,20.32
2017-01-30T04:33:22.829Z,20.29
2017-01-30T04:34:03.314Z,20.34
2017-01-30T04:34:43.834Z,20.23
2017-01-30T04:35:24.308Z,20.26
2017-01-30T04:36:04.802Z,20.29
2017-01-30T04:36:45.293Z,20.34
2017-01-30T04:37:25.793Z,20.32
2017-01-30T04:38:06.278Z,20.26
2017-01-30T04:38:46.757Z,20.29
2017-01-30T04:39:27.252Z,20.25
2017-01-30T04:40:07.742Z,20.26
2017-01-30T04:40:48.230Z,20.22
2017-01-30T04:41:28.722Z,20.26
2017-01-30T04:42:09.215Z,20.25
2017-01-30T04:42:49.716Z,20.22
2017-01-30T04:43:30.182Z,20.29
2017-01-30T04:44:10.695Z,20.34
2017-01-30T04:44:51.194Z,20.32
2017-01-30T04:45:31.678Z,20.4
2017-01-30T04:46:12.166Z,20.35
2017-01-30T04:46:52.649Z,20.23
2017-01-30T04:47:33.145Z,20.23
2017-01-30T04:48:13.635Z,20.3
2017-01-30T04:48:54.121Z,20.26
2017-01-30T04:49:34.612Z,20.29
2017-01-30T04:50:15.096Z,20.32
2017-01-30T04:50:55.607Z,20.32
2017-01-30T04:51:36.098Z,20.3
2017-01-30T04:52:16.607Z,20.2
2017-01-30T04:52:57.104Z,20.27
2017-01-30T04:53:37.597Z,20.25
2017-01-30T04:54:18.091Z,20.27
2017-01-30T04:54:58.584Z,20.23
2017-01-30T04:55:39.075Z,20.26
2017-01-30T04:56:19.581Z,20.35
2017-01-30T04:57:00.075Z,20.29
2017-01-30T04:57:40.567Z,20.35
2017-01-30T04:58:21.051Z,20.37
2017-01-30T04:59:01.532Z,20.34
2017-01-30T04:59:42.027Z,20.25
2017-01-30T05:00:22.521Z,20.3
2017-01-30T05:01:03.003Z,20.34
2017-01-30T05:01:43.495Z,20.3
2017-01-30T05:02:23.985Z,20.27
2017-01-30T05:03:04.483Z,20.27
2017-01-30T05:03:44.972Z,20.2
2017-01-30T05:04:25.469Z,20.23
2017-01-30T05:05:05.961Z,20.25
2017-01-30T05:05:46.459Z,20.25
2017-01-30T05:06:26.942Z,20.26
2017-01-30T05:07:07.438Z,20.32
2017-01-30T05:07:48.180Z,20.22
2017-01-30T05:08:28.615Z,20.25
2017-01-30T05:09:09.109Z,20.23
2017-01-30T05:09:49.611Z,20.23
2017-01-30T05:10:30.114Z,20.35
2017-01-30T05:11:10.612Z,20.25
2017-01-30T05:11:51.102Z,20.23
2017-01-30T05:12:31.586Z,20.2
2017-01-30T05:13:12.074Z,20.26
2017-01-30T05:13:52.564Z,20.26
2017-01-30T05:14:33.057Z,20.32
2017-01-30T05:15:13.548Z,20.25
2017-01-30T05:15:54.058Z,20.22
2017-01-30T05:16:34.544Z,20.27
2017-01-30T05:17:15.033Z,20.3
2017-01-30T05:17:55.518Z,20.26
2017-01-30T05:18:36.009Z,20.35
2017-01-30T05:19:16.505Z,20.3
2017-01-30T05:19:56.994Z,20.23
2017-01-30T05:20:37.478Z,20.23
2017-01-30T05:21:17.974Z,20.29
2017-01-30T05:21:58.470Z,20.37
2017-01-30T05:22:38.956Z,20.34
2017-01-30T05:23:19.450Z,20.23
2017-01-30T05:24:00.004Z,20.25
2017-01-30T05:24:40.480Z,20.35
2017-01-30T05:25:20.996Z,20.37
2017-01-30T05:26:01.499Z,20.3
2017-01-30T05:26:41.994Z,20.26
2017-01-30T05:27:22.498Z,20.27
2017-01-30T05:28:03.064Z,20.27
2017-01-30T05:28:43.569Z,20.32
2017-01-30T05:29:24.057Z,20.25
2017-01-30T05:30:04.551Z,20.29
2017-01-30T05:30:45.046Z,20.26
2017-01-30T05:31:25.540Z,20.32
2017-01-30T05:32:06.044Z,20.35
2017-01-30T05:32:46.530Z,20.35
2017-01-30T05:33:27.037Z,20.34
2017-01-30T05:34:07.545Z,20.34
2017-01-30T05:34:48.038Z,20.32
2017-01-30T05:35:28.528Z,20.37
2017-01-30T05:36:09.016Z,20.34
2017-01-30T05:36:49.502Z,20.29
2017-01-30T05:37:30.008Z,20.29
2017-01-30T05:38:10.492Z,20.29
2017-01-30T05:38:50.985Z,20.26
2017-01-30T05:39:31.481Z,20.32
2017-01-30T05:40:11.969Z,20.4
2017-01-30T05:40:52.460Z,20.34
2017-01-30T05:41:32.955Z,20.3
2017-01-30T05:42:13.451Z,20.32
2017-01-30T05:42:53.934Z,20.37
2017-01-30T05:43:34.419Z,20.3
2017-01-30T05:44:14.906Z,20.3
2017-01-30T05:44:55.400Z,20.29
2017-01-30T05:45:35.902Z,20.23
2017-01-30T05:46:16.383Z,20.26
2017-01-30T05:46:56.859Z,20.34
2017-01-30T05:47:37.347Z,20.3
2017-01-30T05:48:17.832Z,20.26
2017-01-30T05:48:58.324Z,20.22
2017-01-30T05:49:38.820Z,20.26
2017-01-30T05:50:19.297Z,20.27
2017-01-30T05:50:59.794Z,20.23
2017-01-30T05:51:40.270Z,20.32
2017-01-30T05:52:20.748Z,20.35
2017-01-30T05:53:01.259Z,20.27
2017-01-30T05:53:41.765Z,20.3
2017-01-30T05:54:22.262Z,20.22
2017-01-30T05:55:02.757Z,20.25
2017-01-30T05:55:43.263Z,20.25
2017-01-30T05:56:23.765Z,20.34
2017-01-30T05:57:04.262Z,20.32
2017-01-30T05:57:44.764Z,20.35
2017-01-30T05:58:25.263Z,20.34
2017-01-30T05:59:05.760Z,20.26
2017-01-30T05:59:46.259Z,20.26
2017-01-30T06:00:26.756Z,20.26
2017-01-30T06:01:07.263Z,20.26
2017-01-30T06:01:47.749Z,20.29
2017-01-30T06:02:28.254Z,20.26
2017-01-30T06:03:08.749Z,20.25
2017-01-30T06:03:49.256Z,20.25
2017-01-30T06:04:29.759Z,20.2
2017-01-30T06:05:10.256Z,20.25
2017-01-30T06:05:50.757Z,20.22
2017-01-30T06:06:31.255Z,20.23
2017-01-30T06:07:11.756Z,20.23
2017-01-30T06:07:52.251Z,20.23
2017-01-30T06:08:32.744Z,20.23
2017-01-30T06:09:13.226Z,20.38
2017-01-30T06:09:53.713Z,20.26
2017-01-30T06:10:34.221Z,20.32
2017-01-30T06:11:14.709Z,20.29
2017-01-30T06:11:55.202Z,20.35
2017-01-30T06:12:35.694Z,20.3
2017-01-30T06:13:16.197Z,20.41
2017-01-30T06:13:56.694Z,20.26
2017-01-30T06:14:37.190Z,20.34
2017-01-30T06:15:17.697Z,20.37
2017-01-30T06:15:58.178Z,20.26
2017-01-30T06:16:38.667Z,20.29
2017-01-30T06:17:19.150Z,20.25
2017-01-30T06:17:59.641Z,20.23
2017-01-30T06:18:40.144Z,20.32
2017-01-30T06:19:20.623Z,20.27
2017-01-30T06:20:01.116Z,20.26
2017-01-30T06:20:41.598Z,20.26
2017-01-30T06:21:22.090Z,20.29
2017-01-30T06:22:02.584Z,20.29
2017-01-30T06:22:43.089Z,20.27
2017-01-30T06:23:23.585Z,20.23
2017-01-30T06:24:04.082Z,20.27
2017-01-30T06:24:44.586Z,20.23
2017-01-30T06:25:25.077Z,20.22
2017-01-30T06:26:05.585Z,20.25
2017-01-30T06:26:46.080Z,20.18
2017-01-30T06:27:26.583Z,20.19
2017-01-30T06:28:07.074Z,20.23
2017-01-30T06:28:47.581Z,20.25
2017-01-30T06:29:28.184Z,20.3
2017-01-30T06:30:08.681Z,20.25
2017-01-30T06:30:49.176Z,20.26
2017-01-30T06:31:29.684Z,20.29
2017-01-30T06:32:10.173Z,20.22
2017-01-30T06:32:50.679Z,20.19
2017-01-30T06:33:31.162Z,20.29
2017-01-30T06:34:11.650Z,20.26
2017-01-30T06:34:52.145Z,20.26
2017-01-30T06:35:32.647Z,20.26
2017-01-30T06:36:13.130Z,20.19
2017-01-30T06:36:53.618Z,20.25
2017-01-30T06:37:34.124Z,20.32
2017-01-30T06:38:14.626Z,20.23
2017-01-30T06:38:55.119Z,20.19
2017-01-30T06:39:36.514Z,20.22
2017-01-30T06:40:17.011Z,20.3
2017-01-30T06:40:57.490Z,20.35
2017-01-30T06:41:37.973Z,20.3
2017-01-30T06:42:18.463Z,20.22
2017-01-30T06:42:58.946Z,20.27
2017-01-30T06:43:39.463Z,20.26
2017-01-30T06:44:19.947Z,20.34
2017-01-30T06:45:00.436Z,20.25
2017-01-30T06:45:40.927Z,20.29
2017-01-30T06:47:18.325Z,20.22
2017-01-30T06:47:58.820Z,20.19
2017-01-30T06:48:39.315Z,20.22
2017-01-30T06:49:19.800Z,20.29
2017-01-30T06:50:00.298Z,20.25
2017-01-30T06:50:40.766Z,20.34
2017-01-30T06:51:21.247Z,20.3
2017-01-30T06:52:01.747Z,20.27
2017-01-30T06:52:42.228Z,20.26
2017-01-30T06:53:22.729Z,20.25
2017-01-30T06:54:03.194Z,20.22
2017-01-30T06:54:43.678Z,20.25
2017-01-30T06:55:24.176Z,20.27
2017-01-30T06:56:04.646Z,20.27
2017-01-30T06:56:45.157Z,20.34
2017-01-30T06:57:25.650Z,20.19
2017-01-30T06:58:06.139Z,20.32
2017-01-30T06:58:46.628Z,20.3
2017-01-30T06:59:27.120Z,20.26
2017-01-30T07:00:07.624Z,20.22
2017-01-30T07:00:48.108Z,20.3
2017-01-30T07:01:28.622Z,20.25
2017-01-30T07:02:09.096Z,20.4
2017-01-30T07:02:49.595Z,20.26
2017-01-30T07:03:30.086Z,20.25
2017-01-30T07:04:10.584Z,20.25
2017-01-30T07:04:51.077Z,20.26
2017-01-30T07:05:31.574Z,20.23
2017-01-30T07:06:12.071Z,20.2
2017-01-30T07:06:52.561Z,20.25
2017-01-30T07:07:33.068Z,20.1
2017-01-30T07:08:13.563Z,20.22
2017-01-30T07:08:54.065Z,20.27
2017-01-30T07:09:34.546Z,20.22
2017-01-30T07:10:15.140Z,20.27
2017-01-30T07:10:55.646Z,20.29
2017-01-30T07:11:36.136Z,20.26
2017-01-30T07:12:16.644Z,20.25
2017-01-30T07:12:57.145Z,20.2
2017-01-30T07:13:37.641Z,20.23
2017-01-30T07:14:18.141Z,20.27
2017-01-30T07:14:58.639Z,20.25
2017-01-30T07:15:40.023Z,20.29
2017-01-30T07:16:19.627Z,20.29
2017-01-30T07:17:00.112Z,20.22
2017-01-30T07:17:40.636Z,20.29
2017-01-30T07:18:21.122Z,20.18
2017-01-30T07:19:01.610Z,20.2
2017-01-30T07:19:42.110Z,20.2
2017-01-30T07:20:22.601Z,20.22
2017-01-30T07:21:04.017Z,20.19
2017-01-30T07:21:43.575Z,20.15
2017-01-30T07:22:24.201Z,20.3
2017-01-30T07:23:04.741Z,20.2
2017-01-30T07:23:45.280Z,20.19
2017-01-30T07:24:25.772Z,20.2
2017-01-30T07:25:06.261Z,20.25
2017-01-30T07:25:46.746Z,20.19
2017-01-30T07:26:27.251Z,20.15
2017-01-30T07:27:07.723Z,20.18
2017-01-30T07:27:48.232Z,20.23
2017-01-30T07:28:28.729Z,20.19
2017-01-30T07:29:09.223Z,20.19
2017-01-30T07:29:49.718Z,20.22
2017-01-30T07:30:30.233Z,20.2
2017-01-30T07:31:10.724Z,20.26
2017-01-30T07:31:51.232Z,20.25
2017-01-30T07:32:31.725Z,20.23
2017-01-30T07:33:12.209Z,20.27
2017-01-30T07:33:52.693Z,20.29
2017-01-30T07:34:33.245Z,20.34
2017-01-30T07:35:13.719Z,20.38
2017-01-30T07:35:54.208Z,20.41
2017-01-30T07:36:34.718Z,20.32
2017-01-30T07:37:15.218Z,20.32
2017-01-30T07:37:55.724Z,20.37
2017-01-30T07:38:36.205Z,20.29
2017-01-30T07:39:16.695Z,20.34
2017-01-30T07:39:57.196Z,20.23
2017-01-30T07:40:37.669Z,20.23
2017-01-30T07:41:18.164Z,20.35
2017-01-30T07:41:58.653Z,20.32
2017-01-30T07:42:39.139Z,20.34
2017-01-30T07:43:19.621Z,20.26
2017-01-30T07:44:00.113Z,20.25
2017-01-30T07:44:40.613Z,20.22
2017-01-30T07:45:21.101Z,20.22
2017-01-30T07:46:01.586Z,20.3
2017-01-30T07:46:42.168Z,20.27
2017-01-30T07:47:22.653Z,20.26
2017-01-30T07:48:03.151Z,20.32
2017-01-30T07:48:43.650Z,20.35
2017-01-30T07:49:24.135Z,20.34
2017-01-30T07:50:04.617Z,20.3
2017-01-30T07:50:45.106Z,20.27
2017-01-30T07:51:25.605Z,20.26
2017-01-30T07:52:06.095Z,20.34
2017-01-30T07:52:46.602Z,20.32
2017-01-30T07:53:27.091Z,20.34
2017-01-30T07:54:07.596Z,20.35
2017-01-30T07:54:48.077Z,20.38
2017-01-30T07:55:28.582Z,20.34
2017-01-30T07:56:09.101Z,20.26
2017-01-30T07:56:49.595Z,20.37
2017-01-30T07:57:30.093Z,20.23
2017-01-30T07:58:10.594Z,20.25
2017-01-30T07:58:51.084Z,20.23
2017-01-30T07:59:31.575Z,20.26
2017-01-30T08:00:12.059Z,20.27
2017-01-30T08:00:52.561Z,20.3
2017-01-30T08:01:33.043Z,20.27
2017-01-30T08:02:13.548Z,20.22
2017-01-30T08:02:54.053Z,20.23
2017-01-30T08:03:34.542Z,20.27
2017-01-30T08:04:15.025Z,20.25
2017-01-30T08:04:55.532Z,20.22
2017-01-30T08:05:36.028Z,20.25
2017-01-30T08:06:16.512Z,20.3
2017-01-30T08:06:57.010Z,20.38
2017-01-30T08:07:37.492Z,20.26
2017-01-30T08:08:17.978Z,20.29
2017-01-30T08:08:58.486Z,20.25
2017-01-30T08:09:38.982Z,20.29
2017-01-30T08:10:19.483Z,20.25
2017-01-30T08:10:59.979Z,20.3
2017-01-30T08:11:40.483Z,20.23
2017-01-30T08:12:20.981Z,20.23
2017-01-30T08:13:01.480Z,20.34
2017-01-30T08:13:41.982Z,20.29
2017-01-30T08:14:22.476Z,20.23
2017-01-30T08:15:03.006Z,20.32
2017-01-30T08:15:43.492Z,20.34
2017-01-30T08:16:23.978Z,20.29
2017-01-30T08:17:04.477Z,20.32
2017-01-30T08:17:45.054Z,20.35
2017-01-30T08:18:25.553Z,20.26
2017-01-30T08:19:06.032Z,20.37
2017-01-30T08:19:46.521Z,20.37
2017-01-30T08:20:27.002Z,20.38
2017-01-30T08:21:07.484Z,20.35
2017-01-30T08:21:47.976Z,20.22
2017-01-30T08:22:28.484Z,20.22
2017-01-30T08:23:08.980Z,20.3
2017-01-30T08:23:49.469Z,20.26
2017-01-30T08:24:29.970Z,20.42
2017-01-30T08:25:10.468Z,20.38
2017-01-30T08:25:50.965Z,20.3
2017-01-30T08:26:31.466Z,20.37
2017-01-30T08:27:11.962Z,20.38
2017-01-30T08:27:52.443Z,20.37
2017-01-30T08:28:32.930Z,20.35
2017-01-30T08:29:13.432Z,20.38
2017-01-30T08:29:53.972Z,20.4
2017-01-30T08:30:35.630Z,20.37
2017-01-30T08:31:15.339Z,20.35
2017-01-30T08:31:55.849Z,20.35
2017-01-30T08:32:36.328Z,20.32
2017-01-30T08:33:16.847Z,20.42
2017-01-30T08:33:57.322Z,20.42
2017-01-30T08:34:37.810Z,20.44
2017-01-30T08:35:18.322Z,20.44
2017-01-30T08:35:59.132Z,20.41
2017-01-30T08:36:39.551Z,20.4
2017-01-30T08:37:20.046Z,20.51
2017-01-30T08:38:00.525Z,20.41
2017-01-30T08:38:41.007Z,20.35
2017-01-30T08:39:21.498Z,20.4
2017-01-30T08:40:01.989Z,20.44
2017-01-30T08:40:42.487Z,20.35
2017-01-30T08:41:22.970Z,20.46
2017-01-30T08:42:03.470Z,20.37
2017-01-30T08:42:43.953Z,20.38
2017-01-30T08:43:24.458Z,20.34
2017-01-30T08:44:04.938Z,20.41
2017-01-30T08:44:45.424Z,20.4
2017-01-30T08:45:25.901Z,20.38